sensor_id;sensor_type;location;lat;lon;timestamp;P1;durP1;ratioP1;P2;durP2;ratioP2
51459;SDS011;37534;39.772;2.718;2024-03-02T00:02:14;22.67;;;17.20;;
51459;SDS011;37534;39.772;2.718;2024-03-02T00:04:40;9.90;;;7.53;;
51459;SDS011;37534;39.772;2.718;2024-03-02T00:07:06;17.63;;;13.45;;
51459;SDS011;37534;39.772;2.718;2024-03-02T00:09:32;15.02;;;11.15;;
51459;SDS011;37534;39.772;2.718;2024-03-02T00:12:01;20.13;;;13.63;;
51459;SDS011;37534;39.772;2.718;2024-03-02T00:14:29;31.80;;;10.35;;
51459;SDS011;37534;39.772;2.718;2024-03-02T00:16:55;20.92;;;9.57;;
51459;SDS011;37534;39.772;2.718;2024-03-02T00:19:21;17.27;;;12.68;;
51459;SDS011;37534;39.772;2.718;2024-03-02T00:21:47;19.77;;;11.38;;
51459;SDS011;37534;39.772;2.718;2024-03-02T00:24:34;15.50;;;9.20;;
51459;SDS011;37534;39.772;2.718;2024-03-02T00:27:01;12.38;;;6.32;;
51459;SDS011;37534;39.772;2.718;2024-03-02T00:29:28;12.70;;;8.23;;
51459;SDS011;37534;39.772;2.718;2024-03-02T00:31:54;13.82;;;8.38;;
51459;SDS011;37534;39.772;2.718;2024-03-02T00:34:20;18.38;;;8.93;;
51459;SDS011;37534;39.772;2.718;2024-03-02T00:36:47;11.52;;;8.70;;
51459;SDS011;37534;39.772;2.718;2024-03-02T00:39:15;11.48;;;8.02;;
51459;SDS011;37534;39.772;2.718;2024-03-02T00:41:42;15.88;;;8.55;;
51459;SDS011;37534;39.772;2.718;2024-03-02T00:44:09;11.98;;;7.75;;
51459;SDS011;37534;39.772;2.718;2024-03-02T00:46:40;9.02;;;6.38;;
51459;SDS011;37534;39.772;2.718;2024-03-02T00:49:12;10.95;;;8.18;;
51459;SDS011;37534;39.772;2.718;2024-03-02T00:51:46;8.20;;;6.22;;
51459;SDS011;37534;39.772;2.718;2024-03-02T00:54:15;10.93;;;8.13;;
51459;SDS011;37534;39.772;2.718;2024-03-02T00:56:45;11.23;;;7.95;;
51459;SDS011;37534;39.772;2.718;2024-03-02T00:59:12;7.65;;;6.30;;
51459;SDS011;37534;39.772;2.718;2024-03-02T01:01:38;10.40;;;7.68;;
51459;SDS011;37534;39.772;2.718;2024-03-02T01:04:03;10.45;;;7.57;;
51459;SDS011;37534;39.772;2.718;2024-03-02T01:06:30;13.57;;;7.15;;
51459;SDS011;37534;39.772;2.718;2024-03-02T01:08:56;11.13;;;8.23;;
51459;SDS011;37534;39.772;2.718;2024-03-02T01:11:21;11.60;;;8.85;;
51459;SDS011;37534;39.772;2.718;2024-03-02T01:13:47;11.45;;;8.52;;
51459;SDS011;37534;39.772;2.718;2024-03-02T01:16:13;9.05;;;8.15;;
51459;SDS011;37534;39.772;2.718;2024-03-02T01:18:41;12.98;;;7.82;;
51459;SDS011;37534;39.772;2.718;2024-03-02T01:21:06;9.52;;;7.35;;
51459;SDS011;37534;39.772;2.718;2024-03-02T01:23:32;9.23;;;7.93;;
51459;SDS011;37534;39.772;2.718;2024-03-02T01:25:58;11.05;;;7.43;;
51459;SDS011;37534;39.772;2.718;2024-03-02T01:28:23;10.25;;;6.60;;
51459;SDS011;37534;39.772;2.718;2024-03-02T01:30:49;10.13;;;7.10;;
51459;SDS011;37534;39.772;2.718;2024-03-02T01:33:15;10.93;;;6.13;;
51459;SDS011;37534;39.772;2.718;2024-03-02T01:35:41;26.70;;;21.77;;
51459;SDS011;37534;39.772;2.718;2024-03-02T01:38:07;11.52;;;10.02;;
51459;SDS011;37534;39.772;2.718;2024-03-02T01:40:33;8.80;;;7.68;;
51459;SDS011;37534;39.772;2.718;2024-03-02T01:42:59;8.43;;;5.93;;
51459;SDS011;37534;39.772;2.718;2024-03-02T01:45:25;8.98;;;6.57;;
51459;SDS011;37534;39.772;2.718;2024-03-02T01:47:51;11.23;;;6.97;;
51459;SDS011;37534;39.772;2.718;2024-03-02T01:50:31;7.93;;;6.72;;
51459;SDS011;37534;39.772;2.718;2024-03-02T01:52:57;11.77;;;6.78;;
51459;SDS011;37534;39.772;2.718;2024-03-02T01:55:23;6.65;;;5.35;;
51459;SDS011;37534;39.772;2.718;2024-03-02T01:57:49;7.78;;;5.15;;
51459;SDS011;37534;39.772;2.718;2024-03-02T02:00:19;9.68;;;6.65;;
51459;SDS011;37534;39.772;2.718;2024-03-02T02:02:45;13.18;;;6.05;;
51459;SDS011;37534;39.772;2.718;2024-03-02T02:05:12;9.35;;;5.93;;
51459;SDS011;37534;39.772;2.718;2024-03-02T02:07:38;7.70;;;5.68;;
51459;SDS011;37534;39.772;2.718;2024-03-02T02:10:03;6.78;;;6.05;;
51459;SDS011;37534;39.772;2.718;2024-03-02T02:12:29;7.82;;;6.78;;
51459;SDS011;37534;39.772;2.718;2024-03-02T02:14:55;8.35;;;5.15;;
51459;SDS011;37534;39.772;2.718;2024-03-02T02:17:20;8.95;;;4.85;;
51459;SDS011;37534;39.772;2.718;2024-03-02T02:19:46;15.15;;;5.68;;
51459;SDS011;37534;39.772;2.718;2024-03-02T02:22:11;8.30;;;4.60;;
51459;SDS011;37534;39.772;2.718;2024-03-02T02:24:40;10.32;;;5.25;;
51459;SDS011;37534;39.772;2.718;2024-03-02T02:27:07;9.40;;;6.97;;
51459;SDS011;37534;39.772;2.718;2024-03-02T02:29:33;8.68;;;6.32;;
51459;SDS011;37534;39.772;2.718;2024-03-02T02:31:59;14.05;;;8.73;;
51459;SDS011;37534;39.772;2.718;2024-03-02T02:34:24;8.07;;;7.00;;
51459;SDS011;37534;39.772;2.718;2024-03-02T02:36:49;9.60;;;6.22;;
51459;SDS011;37534;39.772;2.718;2024-03-02T02:39:15;5.13;;;4.63;;
51459;SDS011;37534;39.772;2.718;2024-03-02T02:41:43;5.03;;;4.53;;
51459;SDS011;37534;39.772;2.718;2024-03-02T02:44:09;8.75;;;7.30;;
51459;SDS011;37534;39.772;2.718;2024-03-02T02:46:38;7.78;;;5.32;;
51459;SDS011;37534;39.772;2.718;2024-03-02T02:49:04;7.82;;;5.30;;
51459;SDS011;37534;39.772;2.718;2024-03-02T02:51:30;5.90;;;4.72;;
51459;SDS011;37534;39.772;2.718;2024-03-02T02:53:56;10.35;;;5.63;;
51459;SDS011;37534;39.772;2.718;2024-03-02T02:56:21;6.03;;;5.30;;
51459;SDS011;37534;39.772;2.718;2024-03-02T02:58:47;9.48;;;4.90;;
51459;SDS011;37534;39.772;2.718;2024-03-02T03:01:14;10.18;;;4.45;;
51459;SDS011;37534;39.772;2.718;2024-03-02T03:03:42;8.00;;;4.82;;
51459;SDS011;37534;39.772;2.718;2024-03-02T03:06:07;12.90;;;5.82;;
51459;SDS011;37534;39.772;2.718;2024-03-02T03:08:33;8.27;;;5.65;;
51459;SDS011;37534;39.772;2.718;2024-03-02T03:10:58;6.75;;;6.13;;
51459;SDS011;37534;39.772;2.718;2024-03-02T03:13:24;4.70;;;3.90;;
51459;SDS011;37534;39.772;2.718;2024-03-02T03:15:49;10.20;;;4.53;;
51459;SDS011;37534;39.772;2.718;2024-03-02T03:18:14;5.68;;;4.45;;
51459;SDS011;37534;39.772;2.718;2024-03-02T03:20:40;6.40;;;3.80;;
51459;SDS011;37534;39.772;2.718;2024-03-02T03:23:05;7.20;;;6.32;;
51459;SDS011;37534;39.772;2.718;2024-03-02T03:25:31;12.40;;;8.02;;
51459;SDS011;37534;39.772;2.718;2024-03-02T03:27:56;11.38;;;6.70;;
51459;SDS011;37534;39.772;2.718;2024-03-02T03:30:22;10.82;;;5.38;;
51459;SDS011;37534;39.772;2.718;2024-03-02T03:32:47;7.70;;;5.88;;
51459;SDS011;37534;39.772;2.718;2024-03-02T03:35:13;9.52;;;6.47;;
51459;SDS011;37534;39.772;2.718;2024-03-02T03:37:41;6.63;;;5.07;;
51459;SDS011;37534;39.772;2.718;2024-03-02T03:40:06;5.40;;;4.03;;
51459;SDS011;37534;39.772;2.718;2024-03-02T03:42:35;15.48;;;5.45;;
51459;SDS011;37534;39.772;2.718;2024-03-02T03:45:01;5.15;;;4.60;;
51459;SDS011;37534;39.772;2.718;2024-03-02T03:47:27;12.18;;;4.22;;
51459;SDS011;37534;39.772;2.718;2024-03-02T03:49:53;6.88;;;4.82;;
51459;SDS011;37534;39.772;2.718;2024-03-02T03:52:18;7.00;;;4.47;;
51459;SDS011;37534;39.772;2.718;2024-03-02T03:54:44;5.78;;;5.10;;
51459;SDS011;37534;39.772;2.718;2024-03-02T03:57:09;5.47;;;4.97;;
51459;SDS011;37534;39.772;2.718;2024-03-02T03:59:35;6.65;;;5.45;;
51459;SDS011;37534;39.772;2.718;2024-03-02T04:02:02;4.57;;;4.10;;
51459;SDS011;37534;39.772;2.718;2024-03-02T04:04:28;6.20;;;5.18;;
51459;SDS011;37534;39.772;2.718;2024-03-02T04:06:54;6.57;;;4.63;;
51459;SDS011;37534;39.772;2.718;2024-03-02T04:09:19;11.38;;;5.50;;
51459;SDS011;37534;39.772;2.718;2024-03-02T04:11:45;5.78;;;5.03;;
51459;SDS011;37534;39.772;2.718;2024-03-02T04:14:10;7.07;;;4.05;;
51459;SDS011;37534;39.772;2.718;2024-03-02T04:16:37;5.25;;;4.82;;
51459;SDS011;37534;39.772;2.718;2024-03-02T04:19:04;5.72;;;5.18;;
51459;SDS011;37534;39.772;2.718;2024-03-02T04:21:29;5.32;;;4.85;;
51459;SDS011;37534;39.772;2.718;2024-03-02T04:23:55;7.28;;;5.70;;
51459;SDS011;37534;39.772;2.718;2024-03-02T04:26:24;5.30;;;4.63;;
51459;SDS011;37534;39.772;2.718;2024-03-02T04:28:51;9.48;;;7.15;;
51459;SDS011;37534;39.772;2.718;2024-03-02T04:31:16;6.25;;;5.03;;
51459;SDS011;37534;39.772;2.718;2024-03-02T04:33:42;11.63;;;6.90;;
51459;SDS011;37534;39.772;2.718;2024-03-02T04:36:08;11.45;;;6.07;;
51459;SDS011;37534;39.772;2.718;2024-03-02T04:38:39;8.65;;;6.82;;
51459;SDS011;37534;39.772;2.718;2024-03-02T04:41:05;12.07;;;6.90;;
51459;SDS011;37534;39.772;2.718;2024-03-02T04:43:31;7.22;;;5.97;;
51459;SDS011;37534;39.772;2.718;2024-03-02T04:45:58;8.07;;;7.25;;
51459;SDS011;37534;39.772;2.718;2024-03-02T04:48:24;9.40;;;7.07;;
51459;SDS011;37534;39.772;2.718;2024-03-02T04:50:50;6.95;;;5.68;;
51459;SDS011;37534;39.772;2.718;2024-03-02T04:53:15;10.52;;;6.22;;
51459;SDS011;37534;39.772;2.718;2024-03-02T04:55:41;11.05;;;6.22;;
51459;SDS011;37534;39.772;2.718;2024-03-02T04:58:07;6.10;;;4.85;;
51459;SDS011;37534;39.772;2.718;2024-03-02T05:00:32;7.30;;;5.53;;
51459;SDS011;37534;39.772;2.718;2024-03-02T05:02:58;6.55;;;5.40;;
51459;SDS011;37534;39.772;2.718;2024-03-02T05:05:24;6.72;;;5.93;;
51459;SDS011;37534;39.772;2.718;2024-03-02T05:07:49;10.73;;;5.43;;
51459;SDS011;37534;39.772;2.718;2024-03-02T05:10:15;8.43;;;5.10;;
51459;SDS011;37534;39.772;2.718;2024-03-02T05:12:41;7.60;;;5.35;;
51459;SDS011;37534;39.772;2.718;2024-03-02T05:15:15;9.55;;;4.57;;
51459;SDS011;37534;39.772;2.718;2024-03-02T05:17:41;6.50;;;4.68;;
51459;SDS011;37534;39.772;2.718;2024-03-02T05:20:10;6.00;;;4.68;;
51459;SDS011;37534;39.772;2.718;2024-03-02T05:22:36;19.98;;;7.40;;
51459;SDS011;37534;39.772;2.718;2024-03-02T05:25:03;11.60;;;5.40;;
51459;SDS011;37534;39.772;2.718;2024-03-02T05:27:29;9.90;;;6.75;;
51459;SDS011;37534;39.772;2.718;2024-03-02T05:29:55;6.80;;;5.13;;
51459;SDS011;37534;39.772;2.718;2024-03-02T05:32:21;6.20;;;5.07;;
51459;SDS011;37534;39.772;2.718;2024-03-02T05:34:47;5.30;;;4.78;;
51459;SDS011;37534;39.772;2.718;2024-03-02T05:37:12;6.00;;;4.57;;
51459;SDS011;37534;39.772;2.718;2024-03-02T05:39:38;4.28;;;3.88;;
51459;SDS011;37534;39.772;2.718;2024-03-02T05:42:03;10.82;;;4.35;;
51459;SDS011;37534;39.772;2.718;2024-03-02T05:44:29;14.75;;;4.05;;
51459;SDS011;37534;39.772;2.718;2024-03-02T05:46:55;4.90;;;3.72;;
51459;SDS011;37534;39.772;2.718;2024-03-02T05:49:21;3.65;;;3.28;;
51459;SDS011;37534;39.772;2.718;2024-03-02T05:51:46;6.32;;;3.08;;
51459;SDS011;37534;39.772;2.718;2024-03-02T05:54:12;6.03;;;4.53;;
51459;SDS011;37534;39.772;2.718;2024-03-02T05:56:37;6.97;;;3.85;;
51459;SDS011;37534;39.772;2.718;2024-03-02T05:59:03;3.75;;;3.22;;
51459;SDS011;37534;39.772;2.718;2024-03-02T06:01:44;4.63;;;3.88;;
51459;SDS011;37534;39.772;2.718;2024-03-02T06:04:12;10.23;;;5.20;;
51459;SDS011;37534;39.772;2.718;2024-03-02T06:06:37;4.18;;;3.58;;
51459;SDS011;37534;39.772;2.718;2024-03-02T06:09:04;6.20;;;4.13;;
51459;SDS011;37534;39.772;2.718;2024-03-02T06:11:36;7.43;;;3.78;;
51459;SDS011;37534;39.772;2.718;2024-03-02T06:14:05;12.52;;;4.65;;
51459;SDS011;37534;39.772;2.718;2024-03-02T06:16:32;4.20;;;3.80;;
51459;SDS011;37534;39.772;2.718;2024-03-02T06:18:58;6.10;;;3.67;;
51459;SDS011;37534;39.772;2.718;2024-03-02T06:21:24;6.32;;;3.42;;
51459;SDS011;37534;39.772;2.718;2024-03-02T06:23:50;8.73;;;3.88;;
51459;SDS011;37534;39.772;2.718;2024-03-02T06:26:15;5.45;;;4.10;;
51459;SDS011;37534;39.772;2.718;2024-03-02T06:28:41;9.07;;;4.53;;
51459;SDS011;37534;39.772;2.718;2024-03-02T06:31:06;6.28;;;4.65;;
51459;SDS011;37534;39.772;2.718;2024-03-02T06:33:32;7.72;;;4.55;;
51459;SDS011;37534;39.772;2.718;2024-03-02T06:35:57;9.05;;;4.32;;
51459;SDS011;37534;39.772;2.718;2024-03-02T06:38:23;6.93;;;5.50;;
51459;SDS011;37534;39.772;2.718;2024-03-02T06:40:48;5.90;;;3.17;;
51459;SDS011;37534;39.772;2.718;2024-03-02T06:43:14;13.25;;;6.38;;
51459;SDS011;37534;39.772;2.718;2024-03-02T06:45:40;8.75;;;6.28;;
51459;SDS011;37534;39.772;2.718;2024-03-02T06:48:06;8.50;;;5.10;;
51459;SDS011;37534;39.772;2.718;2024-03-02T06:50:31;5.28;;;4.40;;
51459;SDS011;37534;39.772;2.718;2024-03-02T06:52:57;5.68;;;4.28;;
51459;SDS011;37534;39.772;2.718;2024-03-02T06:55:23;9.82;;;5.85;;
51459;SDS011;37534;39.772;2.718;2024-03-02T06:57:49;6.97;;;5.57;;
51459;SDS011;37534;39.772;2.718;2024-03-02T07:00:15;5.88;;;4.85;;
51459;SDS011;37534;39.772;2.718;2024-03-02T07:02:42;10.10;;;5.07;;
51459;SDS011;37534;39.772;2.718;2024-03-02T07:05:08;6.05;;;4.22;;
51459;SDS011;37534;39.772;2.718;2024-03-02T07:07:34;12.60;;;9.05;;
51459;SDS011;37534;39.772;2.718;2024-03-02T07:10:00;24.02;;;17.45;;
51459;SDS011;37534;39.772;2.718;2024-03-02T07:12:26;15.05;;;10.38;;
51459;SDS011;37534;39.772;2.718;2024-03-02T07:14:51;12.35;;;5.88;;
51459;SDS011;37534;39.772;2.718;2024-03-02T07:17:29;6.50;;;5.43;;
51459;SDS011;37534;39.772;2.718;2024-03-02T07:19:58;11.38;;;9.25;;
51459;SDS011;37534;39.772;2.718;2024-03-02T07:22:24;10.90;;;8.05;;
51459;SDS011;37534;39.772;2.718;2024-03-02T07:24:49;9.90;;;6.78;;
51459;SDS011;37534;39.772;2.718;2024-03-02T07:27:15;11.32;;;6.35;;
51459;SDS011;37534;39.772;2.718;2024-03-02T07:29:42;7.47;;;5.55;;
51459;SDS011;37534;39.772;2.718;2024-03-02T07:32:08;7.35;;;5.55;;
51459;SDS011;37534;39.772;2.718;2024-03-02T07:34:35;7.18;;;5.75;;
51459;SDS011;37534;39.772;2.718;2024-03-02T07:37:02;6.07;;;5.47;;
51459;SDS011;37534;39.772;2.718;2024-03-02T07:39:28;6.28;;;5.35;;
51459;SDS011;37534;39.772;2.718;2024-03-02T07:41:54;7.35;;;5.90;;
51459;SDS011;37534;39.772;2.718;2024-03-02T07:44:20;6.95;;;5.65;;
51459;SDS011;37534;39.772;2.718;2024-03-02T07:46:46;8.13;;;4.93;;
51459;SDS011;37534;39.772;2.718;2024-03-02T07:49:14;5.82;;;4.97;;
51459;SDS011;37534;39.772;2.718;2024-03-02T07:51:41;20.38;;;5.55;;
51459;SDS011;37534;39.772;2.718;2024-03-02T07:54:07;6.68;;;5.97;;
51459;SDS011;37534;39.772;2.718;2024-03-02T07:56:32;30.90;;;5.68;;
51459;SDS011;37534;39.772;2.718;2024-03-02T07:58:58;6.72;;;6.00;;
51459;SDS011;37534;39.772;2.718;2024-03-02T08:01:32;13.07;;;7.28;;
51459;SDS011;37534;39.772;2.718;2024-03-02T08:03:58;6.45;;;5.63;;
51459;SDS011;37534;39.772;2.718;2024-03-02T08:06:24;10.45;;;6.13;;
51459;SDS011;37534;39.772;2.718;2024-03-02T08:08:55;7.50;;;6.13;;
51459;SDS011;37534;39.772;2.718;2024-03-02T08:11:22;8.73;;;6.93;;
51459;SDS011;37534;39.772;2.718;2024-03-02T08:13:48;10.23;;;6.97;;
51459;SDS011;37534;39.772;2.718;2024-03-02T08:16:16;13.50;;;9.90;;
51459;SDS011;37534;39.772;2.718;2024-03-02T08:21:11;13.55;;;9.90;;
51459;SDS011;37534;39.772;2.718;2024-03-02T08:23:38;11.35;;;9.27;;
51459;SDS011;37534;39.772;2.718;2024-03-02T08:26:05;12.32;;;9.55;;
51459;SDS011;37534;39.772;2.718;2024-03-02T08:28:31;12.80;;;8.32;;
51459;SDS011;37534;39.772;2.718;2024-03-02T08:30:58;12.52;;;9.45;;
51459;SDS011;37534;39.772;2.718;2024-03-02T08:33:23;12.10;;;9.65;;
51459;SDS011;37534;39.772;2.718;2024-03-02T08:35:49;15.27;;;8.15;;
51459;SDS011;37534;39.772;2.718;2024-03-02T08:38:15;8.73;;;7.82;;
51459;SDS011;37534;39.772;2.718;2024-03-02T08:40:40;8.32;;;6.72;;
51459;SDS011;37534;39.772;2.718;2024-03-02T08:43:06;12.93;;;7.05;;
51459;SDS011;37534;39.772;2.718;2024-03-02T08:45:32;8.32;;;6.82;;
51459;SDS011;37534;39.772;2.718;2024-03-02T08:47:59;16.48;;;12.35;;
51459;SDS011;37534;39.772;2.718;2024-03-02T08:50:24;14.75;;;11.40;;
51459;SDS011;37534;39.772;2.718;2024-03-02T08:52:50;12.30;;;9.35;;
51459;SDS011;37534;39.772;2.718;2024-03-02T08:55:15;18.80;;;12.93;;
51459;SDS011;37534;39.772;2.718;2024-03-02T08:57:41;15.55;;;14.02;;
51459;SDS011;37534;39.772;2.718;2024-03-02T09:00:07;23.20;;;20.77;;
51459;SDS011;37534;39.772;2.718;2024-03-02T09:02:33;40.35;;;32.08;;
51459;SDS011;37534;39.772;2.718;2024-03-02T09:04:59;31.95;;;22.88;;
51459;SDS011;37534;39.772;2.718;2024-03-02T09:07:25;14.40;;;11.88;;
51459;SDS011;37534;39.772;2.718;2024-03-02T09:09:50;7.93;;;2.83;;
51459;SDS011;37534;39.772;2.718;2024-03-02T09:12:16;6.75;;;2.42;;
51459;SDS011;37534;39.772;2.718;2024-03-02T09:14:41;5.85;;;2.50;;
51459;SDS011;37534;39.772;2.718;2024-03-02T09:17:07;3.47;;;1.67;;
51459;SDS011;37534;39.772;2.718;2024-03-02T09:19:33;4.88;;;2.05;;
51459;SDS011;37534;39.772;2.718;2024-03-02T09:21:58;2.90;;;2.00;;
51459;SDS011;37534;39.772;2.718;2024-03-02T09:24:24;2.17;;;1.70;;
51459;SDS011;37534;39.772;2.718;2024-03-02T09:26:49;5.25;;;2.40;;
51459;SDS011;37534;39.772;2.718;2024-03-02T09:29:15;6.68;;;2.58;;
51459;SDS011;37534;39.772;2.718;2024-03-02T09:31:41;2.58;;;2.38;;
51459;SDS011;37534;39.772;2.718;2024-03-02T09:34:07;3.65;;;2.50;;
51459;SDS011;37534;39.772;2.718;2024-03-02T09:36:33;3.17;;;1.92;;
51459;SDS011;37534;39.772;2.718;2024-03-02T09:38:58;6.32;;;2.30;;
51459;SDS011;37534;39.772;2.718;2024-03-02T09:41:24;2.95;;;2.25;;
51459;SDS011;37534;39.772;2.718;2024-03-02T09:43:50;4.15;;;1.52;;
51459;SDS011;37534;39.772;2.718;2024-03-02T09:46:15;4.00;;;1.45;;
51459;SDS011;37534;39.772;2.718;2024-03-02T09:48:41;3.60;;;1.60;;
51459;SDS011;37534;39.772;2.718;2024-03-02T09:51:09;3.03;;;1.52;;
51459;SDS011;37534;39.772;2.718;2024-03-02T09:53:35;1.60;;;1.50;;
51459;SDS011;37534;39.772;2.718;2024-03-02T09:56:01;2.72;;;1.77;;
51459;SDS011;37534;39.772;2.718;2024-03-02T09:58:27;2.65;;;1.90;;
51459;SDS011;37534;39.772;2.718;2024-03-02T10:00:53;2.47;;;1.83;;
51459;SDS011;37534;39.772;2.718;2024-03-02T10:03:19;1.17;;;1.08;;
51459;SDS011;37534;39.772;2.718;2024-03-02T10:05:46;2.67;;;1.67;;
51459;SDS011;37534;39.772;2.718;2024-03-02T10:08:11;2.15;;;1.45;;
51459;SDS011;37534;39.772;2.718;2024-03-02T10:10:40;2.25;;;1.20;;
51459;SDS011;37534;39.772;2.718;2024-03-02T10:13:08;1.53;;;1.23;;
51459;SDS011;37534;39.772;2.718;2024-03-02T10:15:35;1.83;;;1.50;;
51459;SDS011;37534;39.772;2.718;2024-03-02T10:18:02;1.55;;;1.30;;
51459;SDS011;37534;39.772;2.718;2024-03-02T10:20:29;3.20;;;1.40;;
51459;SDS011;37534;39.772;2.718;2024-03-02T10:22:55;1.40;;;1.30;;
51459;SDS011;37534;39.772;2.718;2024-03-02T10:25:31;2.72;;;1.67;;
51459;SDS011;37534;39.772;2.718;2024-03-02T10:28:00;3.15;;;1.42;;
51459;SDS011;37534;39.772;2.718;2024-03-02T10:30:26;2.95;;;1.83;;
51459;SDS011;37534;39.772;2.718;2024-03-02T10:32:53;2.42;;;1.60;;
51459;SDS011;37534;39.772;2.718;2024-03-02T10:35:20;1.85;;;1.20;;
51459;SDS011;37534;39.772;2.718;2024-03-02T10:37:48;6.20;;;3.42;;
51459;SDS011;37534;39.772;2.718;2024-03-02T10:40:14;3.53;;;1.83;;
51459;SDS011;37534;39.772;2.718;2024-03-02T10:42:41;1.85;;;1.27;;
51459;SDS011;37534;39.772;2.718;2024-03-02T10:45:08;2.75;;;1.70;;
51459;SDS011;37534;39.772;2.718;2024-03-02T10:47:38;1.40;;;1.30;;
51459;SDS011;37534;39.772;2.718;2024-03-02T10:50:06;2.33;;;1.65;;
51459;SDS011;37534;39.772;2.718;2024-03-02T10:52:35;9.85;;;1.67;;
51459;SDS011;37534;39.772;2.718;2024-03-02T10:55:05;2.47;;;1.55;;
51459;SDS011;37534;39.772;2.718;2024-03-02T10:57:53;2.10;;;1.50;;
51459;SDS011;37534;39.772;2.718;2024-03-02T11:00:21;5.82;;;1.45;;
51459;SDS011;37534;39.772;2.718;2024-03-02T11:02:53;2.72;;;1.70;;
51459;SDS011;37534;39.772;2.718;2024-03-02T11:07:57;1.20;;;1.10;;
51459;SDS011;37534;39.772;2.718;2024-03-02T11:10:34;5.78;;;1.27;;
51459;SDS011;37534;39.772;2.718;2024-03-02T11:13:08;1.90;;;1.30;;
51459;SDS011;37534;39.772;2.718;2024-03-02T11:15:44;2.05;;;1.50;;
51459;SDS011;37534;39.772;2.718;2024-03-02T11:18:10;2.40;;;1.05;;
51459;SDS011;37534;39.772;2.718;2024-03-02T11:20:39;1.58;;;1.20;;
51459;SDS011;37534;39.772;2.718;2024-03-02T11:23:10;1.40;;;1.23;;
51459;SDS011;37534;39.772;2.718;2024-03-02T11:25:35;1.48;;;1.15;;
51459;SDS011;37534;39.772;2.718;2024-03-02T11:28:10;1.27;;;1.15;;
51459;SDS011;37534;39.772;2.718;2024-03-02T11:35:34;5.68;;;1.60;;
51459;SDS011;37534;39.772;2.718;2024-03-02T11:38:00;2.97;;;1.33;;
51459;SDS011;37534;39.772;2.718;2024-03-02T11:40:28;14.48;;;1.52;;
51459;SDS011;37534;39.772;2.718;2024-03-02T11:42:55;1.67;;;1.15;;
51459;SDS011;37534;39.772;2.718;2024-03-02T11:45:25;10.85;;;1.38;;
51459;SDS011;37534;39.772;2.718;2024-03-02T11:47:51;1.35;;;1.20;;
51459;SDS011;37534;39.772;2.718;2024-03-02T11:50:36;2.42;;;1.10;;
51459;SDS011;37534;39.772;2.718;2024-03-02T11:53:08;1.98;;;1.40;;
51459;SDS011;37534;39.772;2.718;2024-03-02T11:55:35;2.80;;;1.45;;
51459;SDS011;37534;39.772;2.718;2024-03-02T11:58:04;3.30;;;1.02;;
51459;SDS011;37534;39.772;2.718;2024-03-02T12:00:30;4.65;;;1.77;;
51459;SDS011;37534;39.772;2.718;2024-03-02T12:03:08;4.20;;;2.00;;
51459;SDS011;37534;39.772;2.718;2024-03-02T12:05:35;7.00;;;1.63;;
51459;SDS011;37534;39.772;2.718;2024-03-02T12:08:02;3.50;;;2.03;;
51459;SDS011;37534;39.772;2.718;2024-03-02T12:10:29;3.40;;;1.45;;
51459;SDS011;37534;39.772;2.718;2024-03-02T12:13:02;6.28;;;2.28;;
51459;SDS011;37534;39.772;2.718;2024-03-02T12:15:33;2.53;;;1.98;;
51459;SDS011;37534;39.772;2.718;2024-03-02T12:18:02;3.40;;;1.77;;
51459;SDS011;37534;39.772;2.718;2024-03-02T12:20:28;5.63;;;1.67;;
51459;SDS011;37534;39.772;2.718;2024-03-02T12:22:56;3.17;;;1.55;;
51459;SDS011;37534;39.772;2.718;2024-03-02T12:25:23;2.80;;;1.90;;
51459;SDS011;37534;39.772;2.718;2024-03-02T12:27:51;5.43;;;2.17;;
51459;SDS011;37534;39.772;2.718;2024-03-02T12:30:18;1.75;;;1.15;;
51459;SDS011;37534;39.772;2.718;2024-03-02T12:32:45;1.35;;;1.20;;
51459;SDS011;37534;39.772;2.718;2024-03-02T12:35:11;3.38;;;1.48;;
51459;SDS011;37534;39.772;2.718;2024-03-02T12:37:46;3.60;;;1.73;;
51459;SDS011;37534;39.772;2.718;2024-03-02T12:40:13;2.88;;;1.63;;
51459;SDS011;37534;39.772;2.718;2024-03-02T12:42:42;6.35;;;1.50;;
51459;SDS011;37534;39.772;2.718;2024-03-02T12:45:08;4.32;;;1.67;;
51459;SDS011;37534;39.772;2.718;2024-03-02T12:47:34;3.90;;;1.67;;
51459;SDS011;37534;39.772;2.718;2024-03-02T12:50:00;7.43;;;1.83;;
51459;SDS011;37534;39.772;2.718;2024-03-02T12:52:26;2.15;;;1.52;;
51459;SDS011;37534;39.772;2.718;2024-03-02T12:54:52;2.17;;;1.40;;
51459;SDS011;37534;39.772;2.718;2024-03-02T12:57:18;2.65;;;2.33;;
51459;SDS011;37534;39.772;2.718;2024-03-02T12:59:47;1.60;;;1.42;;
51459;SDS011;37534;39.772;2.718;2024-03-02T13:02:19;0.95;;;0.95;;
51459;SDS011;37534;39.772;2.718;2024-03-02T13:04:52;2.03;;;1.42;;
51459;SDS011;37534;39.772;2.718;2024-03-02T13:07:19;4.82;;;2.13;;
51459;SDS011;37534;39.772;2.718;2024-03-02T13:09:45;1.80;;;1.13;;
51459;SDS011;37534;39.772;2.718;2024-03-02T13:12:11;2.30;;;1.35;;
51459;SDS011;37534;39.772;2.718;2024-03-02T13:14:37;3.47;;;1.58;;
51459;SDS011;37534;39.772;2.718;2024-03-02T13:17:02;3.25;;;1.60;;
51459;SDS011;37534;39.772;2.718;2024-03-02T13:19:31;2.70;;;1.70;;
51459;SDS011;37534;39.772;2.718;2024-03-02T13:21:57;3.35;;;1.45;;
51459;SDS011;37534;39.772;2.718;2024-03-02T13:24:23;2.78;;;1.80;;
51459;SDS011;37534;39.772;2.718;2024-03-02T13:26:54;4.80;;;2.17;;
51459;SDS011;37534;39.772;2.718;2024-03-02T13:29:21;2.22;;;1.42;;
51459;SDS011;37534;39.772;2.718;2024-03-02T13:31:47;6.05;;;1.50;;
51459;SDS011;37534;39.772;2.718;2024-03-02T13:34:13;3.10;;;1.67;;
51459;SDS011;37534;39.772;2.718;2024-03-02T13:36:39;4.25;;;2.03;;
51459;SDS011;37534;39.772;2.718;2024-03-02T13:39:04;2.08;;;1.85;;
51459;SDS011;37534;39.772;2.718;2024-03-02T13:41:36;7.72;;;1.35;;
51459;SDS011;37534;39.772;2.718;2024-03-02T13:44:01;3.28;;;2.08;;
51459;SDS011;37534;39.772;2.718;2024-03-02T13:46:30;20.95;;;16.55;;
51459;SDS011;37534;39.772;2.718;2024-03-02T13:48:55;6.10;;;2.50;;
51459;SDS011;37534;39.772;2.718;2024-03-02T13:51:22;6.95;;;2.28;;
51459;SDS011;37534;39.772;2.718;2024-03-02T13:53:47;4.82;;;2.10;;
51459;SDS011;37534;39.772;2.718;2024-03-02T13:56:13;3.35;;;2.10;;
51459;SDS011;37534;39.772;2.718;2024-03-02T13:58:39;3.70;;;2.13;;
51459;SDS011;37534;39.772;2.718;2024-03-02T14:01:04;2.65;;;2.15;;
51459;SDS011;37534;39.772;2.718;2024-03-02T14:03:30;1.70;;;1.60;;
51459;SDS011;37534;39.772;2.718;2024-03-02T14:05:56;2.72;;;2.30;;
51459;SDS011;37534;39.772;2.718;2024-03-02T14:08:22;5.00;;;2.65;;
51459;SDS011;37534;39.772;2.718;2024-03-02T14:10:48;4.43;;;2.53;;
51459;SDS011;37534;39.772;2.718;2024-03-02T14:13:14;5.38;;;2.35;;
51459;SDS011;37534;39.772;2.718;2024-03-02T14:15:40;2.65;;;1.98;;
51459;SDS011;37534;39.772;2.718;2024-03-02T14:18:06;4.38;;;3.08;;
51459;SDS011;37534;39.772;2.718;2024-03-02T14:20:34;11.45;;;7.60;;
51459;SDS011;37534;39.772;2.718;2024-03-02T14:23:00;14.73;;;9.43;;
51459;SDS011;37534;39.772;2.718;2024-03-02T14:25:27;5.97;;;2.97;;
51459;SDS011;37534;39.772;2.718;2024-03-02T14:27:56;3.58;;;2.50;;
51459;SDS011;37534;39.772;2.718;2024-03-02T14:30:23;2.65;;;2.22;;
51459;SDS011;37534;39.772;2.718;2024-03-02T14:32:48;23.27;;;15.45;;
51459;SDS011;37534;39.772;2.718;2024-03-02T14:35:14;3.63;;;3.15;;
51459;SDS011;37534;39.772;2.718;2024-03-02T14:37:40;4.75;;;2.95;;
51459;SDS011;37534;39.772;2.718;2024-03-02T14:40:06;6.50;;;2.17;;
51459;SDS011;37534;39.772;2.718;2024-03-02T14:42:33;24.20;;;4.25;;
51459;SDS011;37534;39.772;2.718;2024-03-02T14:45:02;10.70;;;3.28;;
51459;SDS011;37534;39.772;2.718;2024-03-02T14:47:31;3.20;;;2.10;;
51459;SDS011;37534;39.772;2.718;2024-03-02T14:49:57;11.38;;;2.50;;
51459;SDS011;37534;39.772;2.718;2024-03-02T14:52:23;9.20;;;3.42;;